Time;durP1;ratioP1;P1;durP2;ratioP2;P2;SDS_P1;SDS_P2;PMS_P1;PMS_P2;Temp;Humidity;BMP_temperature;BMP_pressure;BME280_temperature;BME280_humidity;BME280_pressure;Samples;Min_cycle;Max_cycle;Signal;HPM_P1;HPM_P2
2022/02/16 00:02:23;;;;;;;3.97;1.60;;;5.50;74.60;;;;;;4980041;28;20496;-71
2022/02/16 00:04:49;;;;;;;3.13;2.10;;;5.50;74.80;;;;;;4972733;28;20447;-73
2022/02/16 00:07:14;;;;;;;3.10;1.60;;;5.50;74.80;;;;;;4976889;28;20190;-70
2022/02/16 00:09:40;;;;;;;11.60;2.00;;;5.50;74.60;;;;;;4976577;28;20195;-71
2022/02/16 00:12:07;;;;;;;2.70;1.70;;;5.50;74.80;;;;;;4980851;28;20700;-71
2022/02/16 00:14:33;;;;;;;3.30;1.60;;;5.50;74.90;;;;;;4959897;28;20188;-71
2022/02/16 00:16:59;;;;;;;3.90;1.97;;;5.50;74.90;;;;;;4978724;28;20410;-72
2022/02/16 00:19:24;;;;;;;3.93;1.70;;;5.40;75.10;;;;;;4983264;28;20422;-71
2022/02/16 00:21:51;;;;;;;5.33;1.73;;;5.40;75.20;;;;;;4968759;28;20456;-71
2022/02/16 00:24:17;;;;;;;4.47;1.80;;;5.40;75.50;;;;;;4977642;28;20184;-70
2022/02/16 00:26:46;;;;;;;3.00;1.67;;;5.40;75.50;;;;;;4973391;28;20478;-72
2022/02/16 00:29:12;;;;;;;2.63;1.53;;;5.40;75.70;;;;;;4978479;28;20420;-70
2022/02/16 00:31:39;;;;;;;1.87;1.40;;;5.30;75.90;;;;;;4985276;28;20456;-71
2022/02/16 00:34:05;;;;;;;5.13;2.07;;;5.40;75.90;;;;;;4974822;28;20459;-69
2022/02/16 00:36:31;;;;;;;5.10;2.00;;;5.40;75.90;;;;;;4979362;28;20536;-70
2022/02/16 00:38:57;;;;;;;2.90;1.90;;;5.30;76.10;;;;;;4976600;28;20914;-70
2022/02/16 00:41:23;;;;;;;2.80;1.77;;;5.40;76.10;;;;;;4980574;28;20446;-70
2022/02/16 00:43:49;;;;;;;6.83;1.57;;;5.40;76.10;;;;;;4983674;28;20495;-74
2022/02/16 00:46:15;;;;;;;6.17;2.03;;;5.40;76.10;;;;;;4981224;28;20241;-72
2022/02/16 00:48:41;;;;;;;6.20;1.90;;;5.50;75.90;;;;;;4975061;28;20195;-71
2022/02/16 00:51:07;;;;;;;4.10;1.60;;;5.50;76.10;;;;;;4980727;28;20449;-71
2022/02/16 00:53:32;;;;;;;3.47;1.70;;;5.50;75.90;;;;;;4979308;28;20953;-70
2022/02/16 00:55:59;;;;;;;4.83;2.00;;;5.50;75.80;;;;;;4979450;28;20469;-70
2022/02/16 00:58:24;;;;;;;3.30;1.63;;;5.50;75.80;;;;;;4980326;28;20479;-70
2022/02/16 01:00:50;;;;;;;4.90;1.40;;;5.60;75.80;;;;;;4975816;28;20445;-71
2022/02/16 01:03:16;;;;;;;10.27;2.20;;;5.60;75.70;;;;;;4978133;28;20184;-71
2022/02/16 01:05:41;;;;;;;2.70;1.70;;;5.60;75.80;;;;;;4972419;28;20183;-72
2022/02/16 01:08:09;;;;;;;1.97;1.83;;;5.60;75.80;;;;;;4963183;28;20183;-71
2022/02/16 01:10:35;;;;;;;5.03;1.90;;;5.60;75.80;;;;;;4983491;28;20214;-69
2022/02/16 01:13:01;;;;;;;4.27;1.97;;;5.60;75.90;;;;;;4972594;28;20428;-71
2022/02/16 01:15:26;;;;;;;2.90;1.30;;;5.60;75.90;;;;;;4980655;28;20963;-71
2022/02/16 01:17:52;;;;;;;4.70;1.67;;;5.60;75.90;;;;;;4974694;28;20229;-72
2022/02/16 01:20:18;;;;;;;2.43;1.40;;;5.70;75.90;;;;;;4973075;28;20233;-70
2022/02/16 01:22:44;;;;;;;2.50;1.20;;;5.70;75.90;;;;;;4972611;28;20195;-71
2022/02/16 01:25:10;;;;;;;2.87;1.80;;;5.80;75.80;;;;;;4978849;28;20354;-70
2022/02/16 01:27:35;;;;;;;4.30;2.00;;;5.80;75.90;;;;;;4972640;28;20650;-71
2022/02/16 01:30:01;;;;;;;2.07;1.30;;;5.90;75.90;;;;;;4981110;28;20456;-71
2022/02/16 01:32:27;;;;;;;3.50;1.60;;;5.90;75.80;;;;;;4982202;28;20639;-71
2022/02/16 01:34:52;;;;;;;8.77;2.00;;;5.90;75.80;;;;;;4978703;28;20210;-71
2022/02/16 01:37:18;;;;;;;2.60;2.00;;;6.00;75.70;;;;;;4978251;28;20662;-72
2022/02/16 01:39:45;;;;;;;7.60;1.80;;;6.00;75.70;;;;;;4973446;28;20271;-72
2022/02/16 01:42:16;;;;;;;3.73;1.50;;;6.00;75.70;;;;;;4977973;28;20289;-71
2022/02/16 01:44:41;;;;;;;7.63;1.70;;;6.00;75.70;;;;;;4985225;28;20440;-71
2022/02/16 01:47:07;;;;;;;6.20;2.07;;;6.00;75.80;;;;;;4972595;28;20420;-70
2022/02/16 01:49:34;;;;;;;4.03;1.60;;;6.10;75.70;;;;;;4981278;28;20179;-70
2022/02/16 01:52:00;;;;;;;2.93;1.60;;;6.00;75.80;;;;;;4971734;28;20575;-71
2022/02/16 01:54:26;;;;;;;4.33;1.37;;;6.00;75.70;;;;;;4978938;28;20437;-71
2022/02/16 01:56:53;;;;;;;4.67;1.50;;;6.00;75.70;;;;;;4976490;28;20207;-70
2022/02/16 01:59:22;;;;;;;2.00;1.30;;;6.00;75.80;;;;;;4980374;28;20556;-73
2022/02/16 02:01:48;;;;;;;5.07;1.40;;;6.00;75.90;;;;;;4973554;28;21168;-71
2022/02/16 02:04:15;;;;;;;3.87;1.40;;;6.00;75.80;;;;;;4978160;28;20430;-70
2022/02/16 02:06:42;;;;;;;6.93;1.70;;;6.00;75.80;;;;;;4970459;28;20434;-72
2022/02/16 02:09:08;;;;;;;3.60;2.00;;;6.00;75.90;;;;;;4978060;28;20425;-71
2022/02/16 02:11:33;;;;;;;5.13;1.60;;;6.00;75.90;;;;;;4979313;28;20447;-72
2022/02/16 02:14:01;;;;;;;10.03;1.80;;;6.00;75.80;;;;;;4976874;28;20459;-71
2022/02/16 02:16:28;;;;;;;1.57;1.20;;;6.00;75.90;;;;;;4974313;28;20471;-70
2022/02/16 02:18:54;;;;;;;3.83;1.27;;;6.00;75.80;;;;;;4986128;28;20423;-70
2022/02/16 02:21:21;;;;;;;7.40;1.90;;;6.00;75.70;;;;;;4964221;28;21009;-71
2022/02/16 02:23:48;;;;;;;3.17;1.60;;;6.00;75.70;;;;;;4983102;28;20436;-71
2022/02/16 02:26:14;;;;;;;6.50;1.63;;;6.00;75.50;;;;;;4986445;28;20561;-73
2022/02/16 02:28:41;;;;;;;3.10;1.67;;;6.00;75.50;;;;;;4986560;28;20432;-70
2022/02/16 02:31:07;;;;;;;5.03;1.53;;;6.00;75.40;;;;;;4985598;28;20958;-72
2022/02/16 02:33:33;;;;;;;2.67;2.13;;;6.00;75.40;;;;;;4987767;28;20556;-71
2022/02/16 02:35:59;;;;;;;4.80;1.97;;;6.00;75.40;;;;;;4977816;28;20469;-71
2022/02/16 02:38:26;;;;;;;3.67;1.27;;;6.00;75.50;;;;;;4983544;28;20424;-71
2022/02/16 02:40:57;;;;;;;2.00;1.30;;;6.00;75.50;;;;;;4990555;28;20532;-72
2022/02/16 02:43:25;;;;;;;3.50;1.40;;;6.00;75.50;;;;;;4984373;28;20448;-70
2022/02/16 02:45:52;;;;;;;8.20;2.10;;;6.00;75.50;;;;;;4981275;28;20998;-71
2022/02/16 02:48:22;;;;;;;2.03;1.30;;;6.00;75.70;;;;;;4975939;28;21010;-70
2022/02/16 02:50:50;;;;;;;8.80;1.37;;;6.00;75.80;;;;;;4979258;28;20442;-72
2022/02/16 02:53:16;;;;;;;1.60;1.20;;;6.10;75.70;;;;;;4986541;28;20428;-71
2022/02/16 02:55:42;;;;;;;6.03;1.30;;;6.10;75.70;;;;;;4978924;28;20549;-71
2022/02/16 02:58:08;;;;;;;1.77;1.37;;;6.10;75.70;;;;;;4982872;28;20473;-70
2022/02/16 03:00:34;;;;;;;4.23;1.40;;;6.10;75.90;;;;;;4972735;28;20199;-70
2022/02/16 03:03:00;;;;;;;1.97;1.43;;;6.10;75.90;;;;;;4982220;28;20419;-71
2022/02/16 03:05:25;;;;;;;2.17;1.37;;;6.10;76.10;;;;;;4987442;28;20428;-70
2022/02/16 03:07:51;;;;;;;4.37;1.60;;;6.10;75.90;;;;;;4976232;28;20549;-71
2022/02/16 03:10:18;;;;;;;3.87;1.27;;;6.10;76.10;;;;;;4979984;28;20633;-71
2022/02/16 03:12:43;;;;;;;1.87;1.20;;;6.10;76.20;;;;;;4977304;28;20673;-70
2022/02/16 03:15:10;;;;;;;2.30;1.10;;;6.10;76.50;;;;;;4983671;28;20472;-72
2022/02/16 03:17:36;;;;;;;1.87;1.20;;;6.10;76.50;;;;;;4978395;28;20199;-71
2022/02/16 03:20:04;;;;;;;3.27;1.53;;;6.10;76.50;;;;;;4978356;28;20489;-70
2022/02/16 03:22:29;;;;;;;2.00;1.30;;;6.20;76.40;;;;;;4971601;28;20441;-71
2022/02/16 03:24:55;;;;;;;2.33;1.10;;;6.20;76.50;;;;;;4980164;28;20472;-72
2022/02/16 03:27:21;;;;;;;2.00;1.10;;;6.20;76.70;;;;;;4973221;28;20261;-72
2022/02/16 03:29:47;;;;;;;2.77;1.20;;;6.10;76.80;;;;;;4976703;28;20427;-71
2022/02/16 03:32:13;;;;;;;3.80;1.47;;;6.20;77.00;;;;;;4983070;28;20453;-70
2022/02/16 03:34:39;;;;;;;3.60;1.20;;;6.20;76.80;;;;;;4975785;28;20477;-71
2022/02/16 03:37:05;;;;;;;2.70;1.17;;;6.20;76.70;;;;;;4988810;28;20509;-72
2022/02/16 03:39:31;;;;;;;6.83;1.40;;;6.20;76.80;;;;;;4972171;28;20187;-71
2022/02/16 03:41:58;;;;;;;2.93;1.30;;;6.30;76.80;;;;;;4984460;28;20300;-71
2022/02/16 03:44:24;;;;;;;2.97;0.97;;;6.30;76.70;;;;;;4966677;28;20462;-71
2022/02/16 03:46:51;;;;;;;2.37;1.53;;;6.30;76.50;;;;;;4978441;28;20825;-71
2022/02/16 03:49:17;;;;;;;2.13;1.20;;;6.30;76.50;;;;;;4979156;28;20189;-72
2022/02/16 03:51:44;;;;;;;3.77;1.27;;;6.40;76.20;;;;;;4979899;28;20457;-70
2022/02/16 03:54:09;;;;;;;1.73;1.20;;;6.40;76.10;;;;;;4981422;28;20904;-72
2022/02/16 03:56:35;;;;;;;1.40;1.10;;;6.40;75.90;;;;;;4976405;28;20472;-71
2022/02/16 03:59:01;;;;;;;3.03;1.27;;;6.40;76.10;;;;;;4981407;28;20558;-70
2022/02/16 04:01:26;;;;;;;3.67;1.33;;;6.40;75.90;;;;;;4973270;28;20212;-72
2022/02/16 04:03:52;;;;;;;1.37;1.20;;;6.50;75.90;;;;;;4977876;28;20183;-71
2022/02/16 04:06:18;;;;;;;1.47;1.07;;;6.50;75.80;;;;;;4982970;28;20238;-74
2022/02/16 04:08:45;;;;;;;2.60;1.00;;;6.50;75.80;;;;;;4975901;28;20196;-70
2022/02/16 04:11:11;;;;;;;4.10;1.20;;;6.50;75.70;;;;;;4984107;28;20453;-71
2022/02/16 04:13:37;;;;;;;1.93;1.00;;;6.50;75.70;;;;;;4972460;28;20973;-70
2022/02/16 04:16:03;;;;;;;1.90;1.23;;;6.60;75.50;;;;;;4980689;28;20843;-71
2022/02/16 04:18:29;;;;;;;1.70;1.00;;;6.60;75.50;;;;;;4984357;28;20426;-70
2022/02/16 04:20:55;;;;;;;2.30;1.20;;;6.60;75.70;;;;;;4969362;28;20548;-71
2022/02/16 04:23:22;;;;;;;1.70;0.90;;;6.60;75.50;;;;;;4980288;28;20650;-74
2022/02/16 04:25:48;;;;;;;1.00;0.80;;;6.60;75.70;;;;;;4974946;28;20432;-72
2022/02/16 04:28:14;;;;;;;6.80;1.00;;;6.60;75.70;;;;;;4963103;28;20977;-72
2022/02/16 04:30:39;;;;;;;2.53;1.00;;;6.60;75.50;;;;;;4975361;28;20836;-72
2022/02/16 04:33:06;;;;;;;1.83;1.20;;;6.70;75.50;;;;;;4984577;28;20524;-71
2022/02/16 04:35:32;;;;;;;3.73;1.13;;;6.70;75.50;;;;;;4978888;28;20229;-72
2022/02/16 04:37:58;;;;;;;7.27;1.40;;;6.70;75.70;;;;;;4979531;28;20429;-72
2022/02/16 04:40:23;;;;;;;1.33;0.83;;;6.70;75.80;;;;;;4971689;28;20216;-72
2022/02/16 04:42:49;;;;;;;1.37;1.13;;;6.80;75.80;;;;;;4976471;28;20189;-72
2022/02/16 04:45:15;;;;;;;1.70;1.03;;;6.80;75.80;;;;;;4981567;28;20202;-72
2022/02/16 04:47:43;;;;;;;3.03;1.13;;;6.80;75.90;;;;;;4973454;28;20687;-72
2022/02/16 04:50:09;;;;;;;1.57;1.03;;;6.80;76.10;;;;;;4979207;28;20219;-71
2022/02/16 04:52:36;;;;;;;1.43;1.10;;;6.80;76.20;;;;;;4970520;28;20435;-73
2022/02/16 04:55:07;;;;;;;2.50;0.97;;;6.80;76.20;;;;;;4978445;28;20477;-70
2022/02/16 04:57:33;;;;;;;2.03;1.30;;;6.80;76.40;;;;;;4983863;28;20525;-70
2022/02/16 04:59:59;;;;;;;2.00;0.80;;;6.80;76.40;;;;;;4974277;28;20427;-72
2022/02/16 05:02:28;;;;;;;1.50;1.07;;;6.90;76.50;;;;;;4983668;28;20500;-71
2022/02/16 05:04:54;;;;;;;2.00;1.00;;;6.80;76.80;;;;;;4981098;28;20948;-70
2022/02/16 05:07:21;;;;;;;2.17;1.00;;;6.80;76.70;;;;;;4987330;28;20445;-72
2022/02/16 05:09:47;;;;;;;2.50;0.93;;;6.80;77.00;;;;;;4976027;28;20568;-73
2022/02/16 05:12:13;;;;;;;3.27;1.00;;;6.80;77.10;;;;;;4980282;28;20896;-73
2022/02/16 05:14:39;;;;;;;2.70;0.90;;;6.80;77.10;;;;;;4974743;28;20423;-73
2022/02/16 05:17:05;;;;;;;1.07;0.80;;;6.80;77.10;;;;;;4979461;28;20840;-71
2022/02/16 05:19:31;;;;;;;1.73;0.90;;;6.90;77.30;;;;;;4980370;28;20443;-73
2022/02/16 05:21:57;;;;;;;3.80;0.63;;;6.80;77.40;;;;;;4971585;28;20507;-71
2022/02/16 05:24:23;;;;;;;2.10;1.20;;;6.90;77.40;;;;;;4976829;28;20188;-71
2022/02/16 05:26:49;;;;;;;3.27;1.00;;;6.90;77.40;;;;;;4974095;28;20511;-72
2022/02/16 05:29:15;;;;;;;2.67;0.90;;;6.90;77.40;;;;;;4979596;28;20415;-72
2022/02/16 05:31:41;;;;;;;1.77;1.03;;;6.90;77.70;;;;;;4987107;28;20210;-72
2022/02/16 05:34:07;;;;;;;3.73;0.70;;;6.90;77.70;;;;;;4975839;28;20419;-72
2022/02/16 05:36:33;;;;;;;4.07;1.00;;;6.90;77.70;;;;;;4982885;28;20253;-72
2022/02/16 05:38:59;;;;;;;1.30;0.90;;;6.90;77.80;;;;;;4978844;28;20425;-71
2022/02/16 05:41:25;;;;;;;1.20;0.90;;;6.90;78.10;;;;;;4980547;28;20525;-72
2022/02/16 05:43:50;;;;;;;2.00;0.63;;;6.90;78.10;;;;;;4974986;28;20438;-72
2022/02/16 05:46:16;;;;;;;1.60;0.93;;;6.90;78.10;;;;;;4979075;28;20433;-71
2022/02/16 05:48:42;;;;;;;3.53;0.90;;;6.90;78.10;;;;;;4972768;28;20183;-69
2022/02/16 05:51:08;;;;;;;2.73;0.90;;;6.90;78.40;;;;;;4977684;28;20206;-72
2022/02/16 05:53:34;;;;;;;2.90;0.80;;;6.90;78.70;;;;;;4969596;28;20194;-71
2022/02/16 05:56:00;;;;;;;1.17;0.70;;;6.90;78.70;;;;;;4977847;28;20984;-70
2022/02/16 05:58:25;;;;;;;1.00;0.80;;;6.90;78.90;;;;;;4978662;28;20427;-71
2022/02/16 06:00:51;;;;;;;1.70;0.77;;;6.90;78.90;;;;;;4976789;28;20445;-70
2022/02/16 06:03:17;;;;;;;3.03;0.90;;;6.90;79.00;;;;;;4985665;28;20230;-71
2022/02/16 06:05:43;;;;;;;1.10;0.70;;;6.90;79.00;;;;;;4979749;28;20192;-72
2022/02/16 06:08:08;;;;;;;2.13;0.97;;;6.90;79.00;;;;;;4983810;28;20184;-72
2022/02/16 06:10:34;;;;;;;0.93;0.77;;;6.90;79.20;;;;;;4987092;28;20437;-70
2022/02/16 06:13:00;;;;;;;3.33;0.90;;;6.90;79.20;;;;;;4975581;28;20267;-72
2022/02/16 06:15:29;;;;;;;1.83;0.80;;;6.90;79.30;;;;;;4983751;28;20581;-72
2022/02/16 06:17:55;;;;;;;6.00;1.00;;;6.90;79.30;;;;;;4977926;28;20521;-71
2022/02/16 06:20:22;;;;;;;1.40;0.90;;;6.90;79.50;;;;;;4976716;28;20989;-72
2022/02/16 06:22:48;;;;;;;1.60;1.10;;;6.90;79.60;;;;;;4974404;28;20608;-72
2022/02/16 06:25:14;;;;;;;1.00;1.00;;;6.90;79.60;;;;;;4981206;28;20809;-71
2022/02/16 06:27:40;;;;;;;1.43;1.00;;;6.90;79.70;;;;;;4982618;28;20498;-72
2022/02/16 06:30:08;;;;;;;1.10;0.80;;;6.90;79.70;;;;;;4979829;28;20433;-70
2022/02/16 06:32:34;;;;;;;1.20;0.70;;;7.00;79.90;;;;;;4977708;28;20184;-71
2022/02/16 06:35:00;;;;;;;0.90;0.70;;;7.00;79.90;;;;;;4978092;28;20452;-72
2022/02/16 06:37:26;;;;;;;2.23;1.20;;;7.00;79.90;;;;;;4975105;28;20435;-71
2022/02/16 06:39:52;;;;;;;1.83;1.07;;;7.00;79.70;;;;;;4987610;28;20419;-71
2022/02/16 06:42:18;;;;;;;2.07;0.90;;;7.00;79.70;;;;;;4972546;28;20459;-71
2022/02/16 06:44:44;;;;;;;2.67;1.03;;;7.10;79.60;;;;;;4985492;28;20206;-72
2022/02/16 06:47:10;;;;;;;3.23;1.03;;;7.10;79.90;;;;;;4982721;28;20421;-71
2022/02/16 06:49:37;;;;;;;1.40;1.10;;;7.10;79.70;;;;;;4981874;28;20424;-70
2022/02/16 06:52:03;;;;;;;3.73;0.87;;;7.10;79.60;;;;;;4979286;28;20465;-71
2022/02/16 06:54:31;;;;;;;1.63;0.80;;;7.10;79.70;;;;;;4980090;28;20932;-70
2022/02/16 06:56:57;;;;;;;2.10;1.17;;;7.10;80.00;;;;;;4974710;28;20500;-70
2022/02/16 06:59:23;;;;;;;2.23;1.00;;;7.10;80.00;;;;;;4980572;28;20472;-72
2022/02/16 07:01:49;;;;;;;2.93;0.97;;;7.10;79.70;;;;;;4981035;28;20450;-71
2022/02/16 07:04:15;;;;;;;1.47;1.10;;;7.10;80.00;;;;;;4979181;28;20198;-72
2022/02/16 07:06:41;;;;;;;4.20;1.23;;;7.10;80.00;;;;;;4977964;28;20911;-71
2022/02/16 07:09:06;;;;;;;1.50;0.87;;;7.10;80.00;;;;;;4978305;28;20186;-71
2022/02/16 07:11:32;;;;;;;2.63;1.07;;;7.10;80.60;;;;;;4975278;28;20795;-72
2022/02/16 07:13:58;;;;;;;2.17;0.83;;;7.10;81.20;;;;;;4985690;28;20197;-70
2022/02/16 07:16:24;;;;;;;2.43;0.80;;;7.10;81.40;;;;;;4980933;28;20301;-73
2022/02/16 07:18:49;;;;;;;2.00;0.80;;;7.10;81.70;;;;;;4988364;28;20191;-70
2022/02/16 07:21:15;;;;;;;1.50;0.90;;;7.10;81.70;;;;;;4971927;28;20490;-70
2022/02/16 07:23:46;;;;;;;2.07;0.93;;;7.10;81.90;;;;;;4984570;28;20544;-72
2022/02/16 07:26:12;;;;;;;3.63;1.10;;;7.10;82.20;;;;;;4971713;28;20250;-71
2022/02/16 07:28:38;;;;;;;2.60;1.10;;;7.10;82.70;;;;;;4983226;28;20487;-72
2022/02/16 07:31:04;;;;;;;3.20;1.10;;;7.10;83.10;;;;;;4979415;28;20458;-71
2022/02/16 07:33:30;;;;;;;1.83;1.00;;;7.00;83.60;;;;;;4981206;28;21132;-72
2022/02/16 07:35:55;;;;;;;14.80;1.60;;;7.00;84.00;;;;;;4975878;28;20202;-73
2022/02/16 07:38:21;;;;;;;2.70;1.10;;;6.90;84.70;;;;;;4985008;28;20183;-73
2022/02/16 07:40:47;;;;;;;12.70;1.13;;;6.80;85.20;;;;;;4981998;28;20227;-73
2022/02/16 07:43:12;;;;;;;4.20;1.30;;;6.80;86.00;;;;;;4978930;28;20648;-71
2022/02/16 07:45:38;;;;;;;9.57;1.47;;;6.70;86.50;;;;;;4978744;28;20239;-73
2022/02/16 07:48:04;;;;;;;3.53;1.77;;;6.70;86.80;;;;;;4978191;28;20265;-73
2022/02/16 07:50:30;;;;;;;1.43;1.10;;;6.70;86.90;;;;;;4975758;28;20239;-72
2022/02/16 07:52:59;;;;;;;1.93;1.10;;;6.70;87.70;;;;;;4988430;28;20457;-73
2022/02/16 07:55:28;;;;;;;5.70;1.43;;;6.60;87.80;;;;;;4973028;28;20835;-71
2022/02/16 07:57:58;;;;;;;7.40;1.80;;;6.50;88.30;;;;;;4975289;28;20489;-72
2022/02/16 08:00:25;;;;;;;1.27;1.00;;;6.50;88.40;;;;;;4971536;28;20978;-70
2022/02/16 08:02:51;;;;;;;1.40;1.20;;;6.40;89.20;;;;;;4982630;28;20462;-74
2022/02/16 08:05:17;;;;;;;5.07;1.37;;;6.40;89.70;;;;;;4981479;28;20457;-70
2022/02/16 08:07:42;;;;;;;4.83;1.60;;;6.40;89.90;;;;;;4981865;28;20217;-73
2022/02/16 08:10:08;;;;;;;6.83;1.13;;;6.40;90.30;;;;;;4979096;28;20195;-72
2022/02/16 08:12:46;;;;;;;6.10;1.43;;;6.40;90.10;;;;;;4979642;28;20237;-73
2022/02/16 08:15:12;;;;;;;8.33;1.70;;;6.30;90.60;;;;;;4978721;28;20465;-74
2022/02/16 08:17:38;;;;;;;4.37;1.70;;;6.30;90.80;;;;;;4976544;28;21202;-72
2022/02/16 08:20:09;;;;;;;2.70;1.40;;;6.30;90.70;;;;;;4976944;28;20191;-72
2022/02/16 08:22:35;;;;;;;3.73;1.20;;;6.30;90.60;;;;;;4972507;28;20498;-73
2022/02/16 08:25:02;;;;;;;6.50;2.87;;;6.30;91.00;;;;;;4984424;28;20430;-75
2022/02/16 08:27:28;;;;;;;8.03;1.70;;;6.30;91.10;;;;;;4983237;28;20423;-73
2022/02/16 08:29:54;;;;;;;1.63;1.17;;;6.30;91.30;;;;;;4977328;28;20483;-72
2022/02/16 08:32:19;;;;;;;1.30;1.17;;;6.30;91.20;;;;;;4991465;28;20214;-74
2022/02/16 08:34:46;;;;;;;2.13;1.00;;;6.30;91.40;;;;;;4985511;28;20889;-73
2022/02/16 08:37:11;;;;;;;3.13;1.30;;;6.20;91.80;;;;;;4980132;28;20191;-75
2022/02/16 08:39:37;;;;;;;1.30;1.20;;;6.20;92.00;;;;;;4972602;28;20427;-73
2022/02/16 08:42:03;;;;;;;1.90;1.33;;;6.20;91.80;;;;;;4979251;28;20211;-75
2022/02/16 08:44:30;;;;;;;3.20;1.80;;;6.20;92.00;;;;;;4984323;28;20202;-73
2022/02/16 08:46:56;;;;;;;3.23;1.30;;;6.20;92.10;;;;;;4958860;28;20524;-71
2022/02/16 08:49:22;;;;;;;10.50;2.10;;;6.20;92.40;;;;;;4979783;28;20430;-74
2022/02/16 08:51:48;;;;;;;2.30;1.20;;;6.20;92.60;;;;;;4972530;28;20448;-72
2022/02/16 08:54:14;;;;;;;7.43;1.77;;;6.20;92.60;;;;;;4975694;28;20524;-73
2022/02/16 08:56:40;;;;;;;6.80;1.73;;;6.20;92.50;;;;;;4981059;28;20463;-73
2022/02/16 08:59:07;;;;;;;4.30;1.23;;;6.10;92.90;;;;;;4980080;28;20191;-73
2022/02/16 09:01:34;;;;;;;7.90;1.80;;;6.10;92.80;;;;;;4973830;28;20443;-72
2022/02/16 09:04:01;;;;;;;2.57;1.23;;;6.10;93.20;;;;;;4978289;28;20425;-75
2022/02/16 09:06:27;;;;;;;1.90;1.77;;;6.20;93.30;;;;;;4978029;28;20428;-71
2022/02/16 09:08:52;;;;;;;3.30;1.23;;;6.10;93.40;;;;;;4975540;28;20476;-72
2022/02/16 09:11:18;;;;;;;2.47;1.60;;;6.20;93.50;;;;;;4978065;28;20819;-72
2022/02/16 09:13:44;;;;;;;3.87;1.83;;;6.20;93.50;;;;;;4973304;28;21025;-73
2022/02/16 09:16:11;;;;;;;1.93;1.10;;;6.20;93.60;;;;;;4978088;28;20215;-73
2022/02/16 09:18:36;;;;;;;1.97;1.13;;;6.10;93.80;;;;;;4984341;28;20418;-74
2022/02/16 09:21:05;;;;;;;3.47;1.23;;;6.20;94.10;;;;;;4966765;28;20810;-71
2022/02/16 09:23:41;;;;;;;2.93;1.20;;;6.20;94.20;;;;;;4983292;28;20476;-71
2022/02/16 09:26:07;;;;;;;4.30;1.53;;;6.20;94.20;;;;;;4984760;28;20504;-72
2022/02/16 09:28:34;;;;;;;1.90;1.03;;;6.30;94.40;;;;;;4980463;28;20778;-73
2022/02/16 09:31:01;;;;;;;4.20;1.43;;;6.30;93.90;;;;;;4976232;28;20445;-72
2022/02/16 09:33:28;;;;;;;1.83;1.17;;;6.30;94.10;;;;;;4979935;28;20924;-72
2022/02/16 09:35:54;;;;;;;2.87;1.10;;;6.30;94.30;;;;;;4971735;28;20795;-72
2022/02/16 09:38:21;;;;;;;2.13;1.23;;;6.40;94.00;;;;;;4980408;28;20436;-71
2022/02/16 09:40:49;;;;;;;4.50;1.63;;;6.40;93.90;;;;;;4983625;28;20446;-72
2022/02/16 09:43:21;;;;;;;1.50;1.17;;;6.50;94.00;;;;;;4980710;28;20445;-73
2022/02/16 09:45:47;;;;;;;2.07;1.30;;;6.50;93.40;;;;;;4980759;28;20438;-72
2022/02/16 09:48:13;;;;;;;2.03;1.20;;;6.60;93.30;;;;;;4979315;28;20928;-70
2022/02/16 09:50:40;;;;;;;1.47;1.00;;;6.70;93.30;;;;;;4978987;28;20673;-71
2022/02/16 09:53:05;;;;;;;4.50;1.00;;;6.80;93.10;;;;;;4987569;28;20488;-73
2022/02/16 09:55:31;;;;;;;3.53;1.17;;;6.80;92.90;;;;;;4974156;28;20474;-73
2022/02/16 09:57:57;;;;;;;2.83;1.23;;;6.90;92.80;;;;;;4988300;28;20183;-72
2022/02/16 10:00:22;;;;;;;1.47;1.07;;;7.00;92.20;;;;;;4973108;28;20180;-71
2022/02/16 10:02:48;;;;;;;4.10;1.30;;;7.10;91.80;;;;;;4987481;28;20222;-72
2022/02/16 10:05:17;;;;;;;3.10;1.40;;;7.10;91.60;;;;;;4983441;28;20566;-71
2022/02/16 10:07:49;;;;;;;2.60;1.37;;;7.20;91.50;;;;;;4981557;28;20421;-71
2022/02/16 10:10:18;;;;;;;4.37;1.30;;;7.20;91.10;;;;;;4982316;28;20480;-70
2022/02/16 10:12:48;;;;;;;4.90;1.17;;;7.30;90.60;;;;;;4979654;28;20425;-71
2022/02/16 10:15:22;;;;;;;5.17;1.60;;;7.40;90.50;;;;;;4986824;28;20465;-70
2022/02/16 10:18:03;;;;;;;2.10;1.10;;;7.50;90.50;;;;;;4979725;28;20421;-71
2022/02/16 10:20:29;;;;;;;1.10;0.80;;;7.60;90.00;;;;;;4976191;28;20975;-72
2022/02/16 10:22:56;;;;;;;1.30;1.00;;;7.70;89.60;;;;;;4977990;28;20504;-70
2022/02/16 10:25:28;;;;;;;1.67;0.77;;;7.70;89.60;;;;;;4982037;28;20191;-70
2022/02/16 10:28:11;;;;;;;1.80;0.90;;;7.70;89.00;;;;;;4973631;28;20508;-72
2022/02/16 10:30:42;;;;;;;1.73;0.70;;;7.80;88.90;;;;;;4980233;28;20800;-71
2022/02/16 10:33:23;;;;;;;1.90;1.00;;;7.90;88.40;;;;;;4982462;28;20420;-71
2022/02/16 10:35:57;;;;;;;1.20;0.80;;;7.90;88.10;;;;;;4975711;28;20465;-73
2022/02/16 10:38:22;;;;;;;2.80;0.93;;;8.00;88.10;;;;;;4981837;28;20417;-69
2022/02/16 10:41:06;;;;;;;2.57;1.33;;;8.00;87.80;;;;;;4972442;28;20480;-72
2022/02/16 10:43:39;;;;;;;0.80;0.80;;;8.10;87.80;;;;;;4977086;28;20552;-71
2022/02/16 10:46:22;;;;;;;1.83;0.80;;;8.10;87.30;;;;;;4972032;28;20439;-70
2022/02/16 10:49:06;;;;;;;1.27;0.73;;;8.20;87.60;;;;;;4972645;28;20437;-69
2022/02/16 10:51:33;;;;;;;1.30;0.80;;;8.30;87.00;;;;;;4983734;28;20484;-70
2022/02/16 10:54:14;;;;;;;2.67;0.97;;;8.30;86.90;;;;;;4981626;28;20492;-69
2022/02/16 10:56:41;;;;;;;1.10;1.07;;;8.50;87.00;;;;;;4976922;28;20479;-70
2022/02/16 10:59:07;;;;;;;1.13;1.00;;;8.60;86.60;;;;;;4981955;28;20461;-69
2022/02/16 11:01:35;;;;;;;2.63;0.93;;;8.70;86.00;;;;;;4974371;28;20447;-70
2022/02/16 11:04:04;;;;;;;0.90;0.80;;;8.80;85.90;;;;;;4985671;28;20924;-70
2022/02/16 11:06:37;;;;;;;1.00;0.87;;;8.90;85.50;;;;;;4982149;28;20526;-72
2022/02/16 11:09:05;;;;;;;3.07;0.90;;;9.00;85.30;;;;;;4981161;28;20426;-70
2022/02/16 11:11:32;;;;;;;4.03;1.20;;;9.00;85.50;;;;;;4987099;28;20460;-70
2022/02/16 11:14:00;;;;;;;3.17;0.80;;;9.00;85.50;;;;;;4986855;28;20421;-71
2022/02/16 11:16:27;;;;;;;1.23;0.80;;;9.10;85.30;;;;;;4983519;28;20482;-70
2022/02/16 11:18:59;;;;;;;1.03;0.70;;;9.20;85.30;;;;;;4996231;28;20426;-70
2022/02/16 11:21:28;;;;;;;1.80;0.80;;;9.30;85.00;;;;;;4966757;28;20483;-72
2022/02/16 11:23:56;;;;;;;1.20;0.80;;;9.30;84.90;;;;;;4973770;28;20419;-71
2022/02/16 11:26:37;;;;;;;2.83;0.90;;;9.50;85.00;;;;;;4985825;28;20515;-71
2022/02/16 11:29:27;;;;;;;1.80;0.80;;;9.60;84.60;;;;;;4972870;28;20447;-70
2022/02/16 11:31:54;;;;;;;1.87;0.80;;;9.80;84.10;;;;;;4974228;28;20442;-69
2022/02/16 11:34:22;;;;;;;2.30;0.80;;;9.90;83.60;;;;;;4972347;28;20434;-68
2022/02/16 11:37:02;;;;;;;1.30;0.70;;;9.90;83.60;;;;;;4985154;28;20531;-70
2022/02/16 11:39:50;;;;;;;1.33;0.90;;;10.00;83.10;;;;;;4987369;28;20505;-74
2022/02/16 11:42:21;;;;;;;2.20;1.00;;;10.20;82.80;;;;;;4980472;28;20525;-71
2022/02/16 11:44:50;;;;;;;1.27;0.93;;;10.30;82.40;;;;;;4982849;28;20449;-74
2022/02/16 11:47:34;;;;;;;0.80;0.60;;;10.30;82.40;;;;;;4972273;28;20506;-72
2022/02/16 11:50:28;;;;;;;0.80;0.80;;;10.30;82.70;;;;;;4973186;28;20456;-72
2022/02/16 11:52:56;;;;;;;1.53;0.77;;;10.40;82.80;;;;;;4973809;28;20430;-74
2022/02/16 11:55:27;;;;;;;1.10;0.80;;;10.40;82.70;;;;;;4972547;28;21001;-71
2022/02/16 11:57:57;;;;;;;1.27;0.97;;;10.50;82.50;;;;;;4987100;28;20469;-70
2022/02/16 12:00:28;;;;;;;1.30;0.90;;;10.50;82.50;;;;;;4970192;28;20431;-72
2022/02/16 12:03:05;;;;;;;3.17;0.90;;;10.40;82.80;;;;;;4980401;28;20501;-73
2022/02/16 12:05:53;;;;;;;2.10;1.10;;;10.40;83.30;;;;;;4984459;28;20419;-72
2022/02/16 12:08:44;;;;;;;2.07;0.83;;;10.50;83.30;;;;;;4972811;28;20927;-72
2022/02/16 12:11:15;;;;;;;1.07;0.80;;;10.50;83.60;;;;;;4973684;28;20434;-72
2022/02/16 12:13:47;;;;;;;1.83;1.03;;;10.50;84.00;;;;;;4972204;28;20434;-71
2022/02/16 12:16:21;;;;;;;1.50;0.90;;;10.50;85.50;;;;;;4978543;28;21010;-72
2022/02/16 12:18:49;;;;;;;6.83;1.00;;;10.30;86.60;;;;;;4986534;28;20467;-72
2022/02/16 12:21:30;;;;;;;3.93;0.90;;;10.30;86.50;;;;;;4965521;28;21058;-71
2022/02/16 12:23:59;;;;;;;0.93;0.77;;;10.30;86.60;;;;;;4972802;28;20796;-70
2022/02/16 12:26:28;;;;;;;1.00;0.70;;;10.40;86.30;;;;;;4985204;28;20432;-69
2022/02/16 12:29:13;;;;;;;0.90;0.70;;;10.40;86.60;;;;;;4970156;28;20801;-72
2022/02/16 12:31:42;;;;;;;1.20;0.90;;;10.40;86.90;;;;;;4984326;28;20449;-71
2022/02/16 12:34:10;;;;;;;0.80;0.73;;;10.40;88.00;;;;;;4957025;28;20822;-69
2022/02/16 12:36:46;;;;;;;2.40;0.60;;;10.30;88.70;;;;;;4983034;28;20934;-70
2022/02/16 12:39:12;;;;;;;1.20;0.80;;;10.40;89.60;;;;;;4982003;28;20413;-69
2022/02/16 12:41:39;;;;;;;0.90;0.60;;;10.40;89.90;;;;;;4979594;28;20921;-71
2022/02/16 12:44:10;;;;;;;1.73;0.70;;;10.30;89.90;;;;;;4976710;28;20434;-71
2022/02/16 12:46:48;;;;;;;0.60;0.40;;;10.40;89.00;;;;;;4978641;28;20418;-70
2022/02/16 12:49:16;;;;;;;1.10;0.70;;;10.40;88.40;;;;;;4981406;28;20516;-71
2022/02/16 12:51:46;;;;;;;1.57;0.70;;;10.40;88.10;;;;;;4975155;28;20461;-72
2022/02/16 12:54:23;;;;;;;1.87;0.90;;;10.50;87.70;;;;;;4979374;28;20418;-71
2022/02/16 12:56:52;;;;;;;0.90;0.67;;;10.50;87.60;;;;;;4972437;28;20469;-73
2022/02/16 12:59:17;;;;;;;1.23;0.80;;;10.60;87.00;;;;;;4987041;28;20516;-72